SBVT

Details ICAO SBVT (VIX)
Name Eurico De Aguiar Selles Airport
Region Brazil
Timezone America/Sao_Paulo (UTC-3.0)
Plans Departing 185
Arriving 177
Stats Elevation 33 ft / 10 m (AMSL)
Location -20.257800° -40.286800°
Runways 1
Magnetic Variation 23.859° W
Sunrise 2018-10-20 08:08:00 UTC / 2018-10-20 05:08:00 Local
Sunset 2018-10-20 20:46:10 UTC / 2018-10-20 17:46:10 Local
Advertisement - Login to hide

Runways

ID Width Length Bearing (true/mag) Surface Threshold Overrun Markings Lighting
06 148 ft / 45 m 5,747 ft / 1,752 m 31.71° / 55.57° ASPHALT 0 ft / 0 m 0 ft / 0 m PREC-APP CENTERLINE EDGE THRESHOLD REIL-OMNI
24 148 ft / 45 m 5,747 ft / 1,752 m 211.71° / 235.57° ASPHALT 0 ft / 0 m 0 ft / 0 m PREC-APP CENTERLINE EDGE THRESHOLD REIL-OMNI

Map

Weather


0- 5 10 15 20 25 30 35+ Temperature / °C

Clouds and Precipitation
Forecast for 2018-10-20 06:00 UTC. Updated 3 hours ago

Ground ~20,000 ft ~40,000 ft Winds

METAR

SBVT 200600Z 21015KT 9999 SCT010 BKN100 24/22 Q1009

TAF

TAF SBVT 200200Z 2006/2106 05006KT 8000 SCT010 BKN020 TN23/2008Z TX28/2015Z TEMPO 2006/2008 4000 RA BR BKN008 BKN020 BECMG 2012/2014 14010KT SCT015 SCT040 RMK PEA

Frequencies

Tower 118.10 MHz Vitoria Tower
Approach 119.85 MHz Vitoria Approach
Approach 121.50 MHz Vitoria Approach
Ground 121.95 MHz Vitoria Ground
Recorded 127.57 MHz Vitoria ATIS
Warning: Do not use this data for real-world aviation or navigation. No guarantee of current accuracy is given.